createdAt,value
2022-08-09T00:00:23.971Z,76.10
2022-08-09T00:02:52.121Z,76.10
2022-08-09T00:06:17.891Z,76.30
2022-08-09T00:08:11.392Z,76.50
2022-08-09T00:10:59.636Z,76.60
2022-08-09T00:13:28.389Z,76.80
2022-08-09T00:16:02.637Z,77.00
2022-08-09T00:18:34.935Z,77.10
2022-08-09T00:21:07.836Z,77.00
2022-08-09T00:23:55.324Z,77.00
2022-08-09T00:26:33.082Z,77.40
2022-08-09T00:29:12.436Z,77.30
2022-08-09T00:32:01.018Z,77.30
2022-08-09T00:34:28.231Z,77.20
2022-08-09T00:37:00.624Z,77.20
2022-08-09T00:40:13.434Z,77.30
2022-08-09T00:44:13.716Z,77.50
2022-08-09T00:45:15.671Z,77.60
2022-08-09T00:47:43.570Z,77.80
2022-08-09T00:50:14.858Z,77.90
2022-08-09T00:52:42.680Z,77.80
2022-08-09T00:55:32.949Z,78.20
2022-08-09T00:57:59.427Z,78.40
2022-08-09T01:00:27.357Z,78.30
2022-08-09T01:03:14.485Z,78.60
2022-08-09T01:06:18.171Z,79.00
2022-08-09T01:09:03.958Z,79.20
2022-08-09T01:11:55.512Z,79.30
2022-08-09T01:14:26.491Z,79.50
2022-08-09T01:17:12.170Z,79.70
2022-08-09T01:20:02.730Z,79.70
2022-08-09T01:22:57.698Z,80.10
2022-08-09T01:25:48.925Z,80.10
2022-08-09T01:28:21.298Z,80.10
2022-08-09T01:30:54.843Z,80.40
2022-08-09T01:33:29.682Z,80.50
2022-08-09T01:36:09.038Z,80.50
2022-08-09T01:38:40.618Z,80.80
2022-08-09T01:41:26.083Z,80.80
2022-08-09T01:44:00.399Z,80.90
2022-08-09T01:46:36.115Z,81.10
2022-08-09T01:49:12.708Z,81.00
2022-08-09T01:51:55.311Z,81.00
2022-08-09T01:54:32.847Z,81.00
2022-08-09T01:57:17.832Z,81.20
2022-08-09T01:59:53.521Z,81.50
2022-08-09T02:02:32.723Z,81.70
2022-08-09T02:05:15.506Z,81.80
2022-08-09T02:08:39.246Z,81.90
2022-08-09T02:10:56.889Z,82.10
2022-08-09T02:13:40.147Z,82.10
2022-08-09T02:16:12.368Z,82.30
2022-08-09T02:18:43.042Z,82.30
2022-08-09T02:21:22.361Z,82.40
2022-08-09T02:24:00.016Z,82.60
2022-08-09T02:26:34.663Z,82.80
2022-08-09T02:29:12.534Z,82.80
2022-08-09T02:31:44.649Z,82.90
2022-08-09T02:34:40.496Z,83.20
2022-08-09T02:37:17.868Z,83.20
2022-08-09T02:40:09.400Z,83.40
2022-08-09T02:42:41.973Z,83.30
2022-08-09T02:45:26.724Z,83.50
2022-08-09T02:48:06.313Z,83.70
2022-08-09T02:50:56.235Z,83.70
2022-08-09T02:53:31.598Z,83.80
2022-08-09T02:56:04.233Z,84.00
2022-08-09T02:58:36.689Z,84.20
2022-08-09T03:01:10.675Z,84.50
2022-08-09T03:04:16.813Z,84.50
2022-08-09T03:06:30.681Z,84.80
2022-08-09T03:08:59.393Z,84.70
2022-08-09T03:12:04.629Z,85.00
2022-08-09T03:14:17.354Z,85.10
2022-08-09T03:16:47.555Z,85.20
2022-08-09T03:19:59.205Z,85.40
2022-08-09T03:22:11.845Z,85.50
2022-08-09T03:24:51.896Z,85.60
2022-08-09T03:27:22.363Z,85.60
2022-08-09T03:29:57.753Z,85.60
2022-08-09T03:32:31.027Z,85.80
2022-08-09T03:34:59.886Z,86.00
2022-08-09T03:37:55.393Z,86.30
2022-08-09T03:40:17.969Z,86.10
2022-08-09T03:42:46.643Z,86.20
2022-08-09T03:45:15.571Z,86.20
2022-08-09T03:47:46.448Z,86.40
2022-08-09T03:50:18.882Z,86.40
2022-08-09T03:52:59.470Z,86.40
2022-08-09T03:55:27.408Z,86.60
2022-08-09T03:58:06.568Z,86.70
2022-08-09T04:00:45.760Z,86.80
2022-08-09T04:03:24.694Z,86.80
2022-08-09T04:06:07.307Z,86.80
2022-08-09T04:08:34.478Z,87.10
2022-08-09T04:11:02.023Z,87.40
2022-08-09T04:13:44.861Z,87.40
2022-08-09T04:16:20.720Z,87.40
2022-08-09T04:18:49.246Z,87.70
2022-08-09T04:21:20.333Z,87.90
2022-08-09T04:23:54.368Z,88.00
2022-08-09T04:26:25.198Z,88.10
2022-08-09T04:29:10.807Z,88.30
2022-08-09T04:31:46.799Z,88.40
2022-08-09T04:34:19.094Z,88.70
2022-08-09T04:36:57.770Z,88.70
2022-08-09T04:39:25.147Z,88.90
2022-08-09T04:41:59.831Z,89.00
2022-08-09T04:44:29.701Z,89.10
2022-08-09T04:47:05.709Z,89.10
2022-08-09T04:49:53.736Z,88.90
2022-08-09T04:52:29.124Z,89.20
2022-08-09T04:55:12.847Z,89.30
2022-08-09T04:57:58.314Z,89.30
2022-08-09T05:00:31.627Z,89.20
2022-08-09T05:03:12.929Z,89.00
2022-08-09T05:06:04.430Z,89.30
2022-08-09T05:08:33.087Z,89.20
2022-08-09T05:11:02.619Z,88.80
2022-08-09T05:13:33.095Z,89.00
2022-08-09T05:16:01.372Z,89.30
2022-08-09T05:18:50.778Z,89.20
2022-08-09T05:21:22.879Z,89.20
2022-08-09T05:23:58.313Z,89.40
2022-08-09T05:26:37.316Z,88.90
2022-08-09T05:29:21.749Z,89.80
2022-08-09T05:31:59.100Z,89.30
2022-08-09T05:34:36.729Z,89.10
2022-08-09T05:37:11.525Z,89.30
2022-08-09T05:39:45.846Z,89.60
2022-08-09T05:42:17.901Z,89.20
2022-08-09T05:44:51.514Z,89.50
2022-08-09T05:47:21.585Z,89.50
2022-08-09T05:50:26.695Z,89.30
2022-08-09T05:52:42.759Z,88.70
2022-08-09T05:55:18.174Z,89.10
2022-08-09T05:57:56.208Z,88.00
2022-08-09T06:00:28.737Z,88.00
2022-08-09T06:03:02.521Z,88.00
2022-08-09T06:05:54.815Z,88.00
2022-08-09T06:08:24.492Z,87.70
2022-08-09T06:10:58.002Z,88.10
2022-08-09T06:13:28.300Z,87.90
2022-08-09T06:15:55.524Z,87.70
2022-08-09T06:18:25.417Z,87.00
2022-08-09T06:20:58.227Z,87.20
2022-08-09T06:23:58.982Z,87.10
2022-08-09T06:26:21.130Z,86.50
2022-08-09T06:29:00.247Z,86.00
2022-08-09T06:31:39.665Z,86.50
2022-08-09T06:34:22.556Z,86.00
2022-08-09T06:36:59.407Z,86.10
2022-08-09T06:39:29.398Z,85.40
2022-08-09T06:42:15.920Z,85.50
2022-08-09T06:44:42.840Z,85.30
2022-08-09T06:47:10.656Z,85.00
2022-08-09T06:50:12.032Z,84.50
2022-08-09T06:52:25.280Z,84.00
2022-08-09T06:54:54.058Z,84.00
2022-08-09T06:57:42.587Z,83.60
2022-08-09T07:00:57.090Z,83.20
2022-08-09T07:02:57.628Z,82.90
2022-08-09T07:05:25.362Z,82.70
2022-08-09T07:08:12.325Z,82.50
2022-08-09T07:10:39.490Z,81.90
2022-08-09T07:13:27.633Z,81.70
2022-08-09T07:16:41.909Z,81.60
2022-08-09T07:18:40.952Z,81.30
2022-08-09T07:21:08.253Z,80.60
2022-08-09T07:23:36.269Z,81.00
2022-08-09T07:26:04.201Z,80.60
2022-08-09T07:28:34.886Z,80.00
2022-08-09T07:31:04.902Z,79.40
2022-08-09T07:33:52.513Z,79.80
2022-08-09T07:36:20.790Z,79.00
2022-08-09T07:38:56.786Z,78.70
2022-08-09T07:41:38.688Z,78.80
2022-08-09T07:44:06.164Z,78.10
2022-08-09T07:46:33.886Z,78.00
2022-08-09T07:49:04.459Z,77.10
2022-08-09T07:52:05.844Z,76.70
2022-08-09T07:54:28.054Z,76.20
2022-08-09T07:56:58.490Z,76.20
2022-08-09T07:59:34.320Z,74.70
2022-08-09T08:02:19.211Z,73.80
2022-08-09T08:04:48.823Z,74.10
2022-08-09T08:09:02.323Z,72.80
2022-08-09T08:10:07.861Z,72.20
2022-08-09T08:12:42.880Z,72.00
2022-08-09T08:15:23.231Z,71.10
2022-08-09T08:17:55.619Z,70.40
2022-08-09T08:20:32.574Z,69.80
2022-08-09T08:23:06.967Z,69.10
2022-08-09T08:25:49.771Z,68.30
2022-08-09T08:28:25.753Z,67.20
2022-08-09T08:31:08.910Z,67.40
2022-08-09T08:34:05.754Z,65.80
2022-08-09T08:36:37.610Z,65.60
2022-08-09T08:39:08.702Z,65.00
2022-08-09T08:41:38.759Z,64.20
2022-08-09T08:44:27.204Z,64.10
2022-08-09T08:47:02.462Z,63.40
2022-08-09T08:49:38.662Z,61.50
2022-08-09T08:55:06.568Z,59.30
2022-08-09T08:57:39.540Z,59.10
2022-08-09T09:00:20.807Z,59.10
2022-08-09T09:03:45.741Z,58.50
2022-08-09T09:07:05.712Z,57.60
2022-08-09T09:10:32.289Z,55.90
2022-08-09T09:13:50.232Z,55.10
2022-08-09T09:17:16.741Z,55.30
2022-08-09T09:24:21.849Z,54.90
2022-08-09T09:28:06.184Z,53.50
2022-08-09T09:32:03.448Z,52.00
2022-08-09T09:35:03.217Z,52.40
2022-08-09T09:41:49.190Z,49.80
2022-08-09T09:44:53.794Z,49.80
2022-08-09T09:55:40.961Z,48.80
2022-08-09T09:59:45.879Z,47.90
2022-08-09T10:03:14.277Z,47.50
2022-08-09T10:06:39.144Z,46.60
2022-08-09T10:12:28.025Z,45.40
2022-08-09T10:15:50.650Z,45.50
2022-08-09T10:18:12.731Z,45.30
2022-08-09T10:20:44.843Z,44.60
2022-08-09T10:23:22.589Z,44.50
2022-08-09T10:26:04.952Z,44.20
2022-08-09T10:28:40.643Z,43.70
2022-08-09T10:34:08.589Z,43.20
2022-08-09T10:36:42.294Z,43.20
2022-08-09T10:39:13.922Z,42.90
2022-08-09T10:41:43.465Z,42.30
2022-08-09T10:44:11.319Z,42.60
2022-08-09T10:48:16.369Z,41.20
2022-08-09T10:50:30.815Z,42.40
2022-08-09T10:53:21.232Z,42.80
2022-08-09T10:55:57.786Z,42.60
2022-08-09T10:58:37.404Z,41.50
2022-08-09T11:03:10.961Z,42.20
2022-08-09T11:04:30.141Z,42.40
2022-08-09T11:07:01.558Z,42.10
2022-08-09T11:09:38.063Z,41.40
2022-08-09T11:12:20.069Z,40.20
2022-08-09T11:14:57.367Z,41.60
2022-08-09T11:17:27.173Z,41.70
2022-08-09T11:20:20.238Z,41.60
2022-08-09T11:22:56.525Z,41.30
2022-08-09T11:25:45.362Z,41.00
2022-08-09T11:28:34.156Z,41.20
2022-08-09T11:31:43.547Z,40.40
2022-08-09T11:34:36.273Z,41.10
2022-08-09T11:37:07.423Z,40.90
2022-08-09T11:40:06.977Z,41.20
2022-08-09T11:42:45.529Z,40.00
2022-08-09T11:45:52.994Z,40.40
2022-08-09T11:48:52.293Z,40.80
2022-08-09T11:53:16.026Z,39.80
2022-08-09T11:54:28.542Z,40.00
2022-08-09T11:57:59.849Z,39.30
2022-08-09T12:00:28.313Z,39.00
2022-08-09T12:02:58.119Z,39.60
2022-08-09T12:05:42.314Z,39.30
2022-08-09T12:08:21.819Z,39.10
2022-08-09T12:10:59.102Z,39.10
2022-08-09T12:14:10.580Z,38.20
2022-08-09T12:16:38.738Z,38.50
2022-08-09T12:19:10.004Z,38.50
2022-08-09T12:21:50.695Z,38.20
2022-08-09T12:24:25.727Z,38.10
2022-08-09T12:29:11.993Z,38.40
2022-08-09T12:30:04.199Z,38.30
2022-08-09T12:32:43.014Z,38.70
2022-08-09T12:35:13.462Z,38.70
2022-08-09T12:37:51.701Z,38.20
2022-08-09T12:40:27.468Z,37.70
2022-08-09T12:42:56.098Z,37.50
2022-08-09T12:45:34.983Z,37.60
2022-08-09T12:48:20.170Z,38.30
2022-08-09T12:50:59.486Z,37.50
2022-08-09T12:53:40.819Z,38.00
2022-08-09T12:56:39.470Z,37.50
2022-08-09T12:59:15.172Z,37.40
2022-08-09T13:01:49.935Z,37.80
2022-08-09T13:04:36.360Z,37.90
2022-08-09T13:07:14.737Z,37.70
2022-08-09T13:09:45.457Z,37.70
2022-08-09T13:12:23.502Z,36.90
2022-08-09T13:14:54.125Z,37.30
2022-08-09T13:17:58.763Z,36.30
2022-08-09T13:20:18.837Z,37.20
2022-08-09T13:23:05.638Z,37.70
2022-08-09T13:25:54.790Z,37.60
2022-08-09T13:28:34.162Z,37.40
2022-08-09T13:32:16.569Z,37.60
2022-08-09T13:34:35.722Z,37.00
2022-08-09T13:37:05.808Z,37.70
2022-08-09T13:41:54.074Z,37.30
2022-08-09T13:42:26.715Z,37.20
2022-08-09T13:44:58.290Z,37.10
2022-08-09T13:47:33.247Z,36.60
2022-08-09T13:50:30.481Z,36.70
2022-08-09T13:52:58.758Z,36.50
2022-08-09T13:55:29.044Z,36.90
2022-08-09T13:57:58.486Z,37.00
2022-08-09T14:00:29.458Z,37.00
2022-08-09T14:03:04.238Z,36.90
2022-08-09T14:05:59.585Z,36.30
2022-08-09T14:08:31.508Z,35.90
2022-08-09T14:11:01.280Z,36.60
2022-08-09T14:14:22.044Z,36.40
2022-08-09T14:16:28.612Z,36.10
2022-08-09T14:18:57.087Z,36.60
2022-08-09T14:21:24.436Z,37.00
2022-08-09T14:23:56.518Z,36.60
2022-08-09T14:26:32.111Z,36.20
2022-08-09T14:29:07.814Z,36.60
2022-08-09T14:31:54.231Z,36.30
2022-08-09T14:34:31.113Z,36.20
2022-08-09T14:37:08.033Z,36.20
2022-08-09T14:39:47.918Z,36.10
2022-08-09T14:42:31.781Z,36.30
2022-08-09T14:46:46.037Z,35.90
2022-08-09T14:47:58.408Z,36.50
2022-08-09T14:50:28.622Z,36.60
2022-08-09T14:52:56.743Z,36.90
2022-08-09T14:55:25.440Z,36.20
2022-08-09T14:57:56.347Z,36.40
2022-08-09T15:00:24.657Z,36.60
2022-08-09T15:02:54.267Z,36.00
2022-08-09T15:05:25.295Z,36.30
2022-08-09T15:07:54.589Z,36.60
2022-08-09T15:10:25.549Z,36.60
2022-08-09T15:12:57.692Z,36.90
2022-08-09T15:15:28.617Z,36.10
2022-08-09T15:17:58.563Z,36.30
2022-08-09T15:21:56.134Z,36.50
2022-08-09T15:24:01.873Z,36.90
2022-08-09T15:26:02.088Z,37.30
2022-08-09T15:28:33.366Z,36.80
2022-08-09T15:31:10.078Z,36.40
2022-08-09T15:34:18.281Z,37.00
2022-08-09T15:36:30.531Z,37.10
2022-08-09T15:39:00.161Z,37.00
2022-08-09T15:41:31.224Z,37.00
2022-08-09T15:44:03.965Z,36.90
2022-08-09T15:46:34.159Z,36.50
2022-08-09T15:49:21.032Z,36.80
2022-08-09T15:52:03.580Z,36.80
2022-08-09T15:54:48.907Z,37.00
2022-08-09T15:57:35.920Z,36.90
2022-08-09T16:00:25.332Z,37.30
2022-08-09T16:02:56.881Z,37.70
2022-08-09T16:05:53.083Z,37.30
2022-08-09T16:08:30.114Z,36.90
2022-08-09T16:11:01.451Z,37.20
2022-08-09T16:14:03.883Z,37.30
2022-08-09T16:16:26.063Z,37.40
2022-08-09T16:18:55.633Z,37.50
2022-08-09T16:21:25.611Z,37.90
2022-08-09T16:23:54.817Z,37.80
2022-08-09T16:26:33.657Z,37.80
2022-08-09T16:29:11.134Z,37.80
2022-08-09T16:32:18.559Z,38.20
2022-08-09T16:34:55.403Z,38.00
2022-08-09T16:37:53.639Z,38.60
2022-08-09T16:40:13.281Z,37.90
2022-08-09T16:42:45.050Z,38.40
2022-08-09T16:45:18.589Z,38.60
2022-08-09T16:48:43.401Z,38.30
2022-08-09T16:50:38.354Z,38.50
2022-08-09T16:53:06.505Z,38.90
2022-08-09T16:55:58.255Z,38.90
2022-08-09T16:58:23.115Z,38.90
2022-08-09T17:00:50.837Z,38.80
2022-08-09T17:03:22.264Z,39.40
2022-08-09T17:06:08.685Z,39.20
2022-08-09T17:09:01.697Z,39.30
2022-08-09T17:11:40.214Z,39.40
2022-08-09T17:14:26.117Z,40.00
2022-08-09T17:17:03.429Z,40.30
2022-08-09T17:20:06.074Z,40.50
2022-08-09T17:22:31.113Z,40.80
2022-08-09T17:25:02.725Z,40.70
2022-08-09T17:27:38.187Z,40.90
2022-08-09T17:30:14.151Z,41.00
2022-08-09T17:32:45.496Z,41.20
2022-08-09T17:35:14.189Z,41.40
2022-08-09T17:38:12.547Z,41.60
2022-08-09T17:40:33.275Z,41.70
2022-08-09T17:43:32.560Z,41.80
2022-08-09T17:46:03.144Z,41.90
2022-08-09T17:48:33.162Z,42.10
2022-08-09T17:51:09.583Z,42.20
2022-08-09T17:53:43.530Z,42.30
2022-08-09T17:56:18.802Z,42.40
2022-08-09T17:58:47.395Z,42.50
2022-08-09T18:01:22.261Z,42.70
2022-08-09T18:03:52.330Z,42.80
2022-08-09T18:06:31.173Z,43.10
2022-08-09T18:09:03.102Z,43.10
2022-08-09T18:11:46.876Z,43.30
2022-08-09T18:14:21.540Z,43.40
2022-08-09T18:16:50.100Z,43.60
2022-08-09T18:20:57.102Z,43.70
2022-08-09T18:22:13.106Z,43.90
2022-08-09T18:24:45.717Z,44.00
2022-08-09T18:27:59.709Z,44.10
2022-08-09T18:30:41.746Z,44.20
2022-08-09T18:32:54.579Z,44.30
2022-08-09T18:36:00.237Z,44.50
2022-08-09T18:38:12.553Z,44.70
2022-08-09T18:40:42.906Z,44.80
2022-08-09T18:43:13.430Z,45.00
2022-08-09T18:46:47.640Z,45.10
2022-08-09T18:48:32.561Z,45.20
2022-08-09T18:51:01.377Z,45.30
2022-08-09T18:53:36.799Z,45.50
2022-08-09T18:56:16.710Z,45.60
2022-08-09T18:58:47.437Z,45.80
2022-08-09T19:01:22.654Z,45.90
2022-08-09T19:04:01.241Z,46.10
2022-08-09T19:06:33.963Z,46.30
2022-08-09T19:09:02.548Z,46.30
2022-08-09T19:11:35.324Z,46.40
2022-08-09T19:14:06.893Z,46.60
2022-08-09T19:16:36.416Z,46.90
2022-08-09T19:19:21.267Z,47.00
2022-08-09T19:22:04.887Z,47.30
2022-08-09T19:25:07.253Z,47.30
2022-08-09T19:27:22.458Z,47.60
2022-08-09T19:30:20.966Z,47.80
2022-08-09T19:32:37.208Z,47.90
2022-08-09T19:35:05.742Z,48.10
2022-08-09T19:37:41.040Z,48.30
2022-08-09T19:40:21.282Z,48.50
2022-08-09T19:42:49.573Z,48.70
2022-08-09T19:45:17.439Z,48.90
2022-08-09T19:47:45.700Z,48.90
2022-08-09T19:50:50.228Z,49.10
2022-08-09T19:53:02.427Z,49.30
2022-08-09T19:56:02.792Z,49.50
2022-08-09T19:58:29.623Z,49.80
2022-08-09T20:00:58.258Z,49.90
2022-08-09T20:04:17.988Z,50.10
2022-08-09T20:06:22.742Z,50.20
2022-08-09T20:08:56.561Z,50.90
2022-08-09T20:11:43.072Z,50.50
2022-08-09T20:14:15.319Z,50.50
2022-08-09T20:16:53.943Z,50.70
2022-08-09T20:19:48.455Z,50.60
2022-08-09T20:22:14.584Z,50.80
2022-08-09T20:24:43.049Z,50.90
2022-08-09T20:27:21.881Z,51.00
2022-08-09T20:29:49.116Z,51.20
2022-08-09T20:32:30.067Z,51.20
2022-08-09T20:35:07.988Z,51.30
2022-08-09T20:38:19.471Z,51.60
2022-08-09T20:40:26.813Z,51.60
2022-08-09T20:43:00.000Z,51.80
2022-08-09T20:46:00.157Z,52.00
2022-08-09T20:48:21.271Z,52.10
2022-08-09T20:50:54.309Z,52.20
2022-08-09T20:53:37.408Z,52.30
2022-08-09T20:56:20.759Z,52.50
2022-08-09T20:58:50.816Z,52.70
2022-08-09T21:01:35.147Z,52.90
2022-08-09T21:05:54.410Z,53.00
2022-08-09T21:06:59.309Z,53.10
2022-08-09T21:09:46.127Z,53.50
2022-08-09T21:15:14.080Z,53.70
2022-08-09T21:18:20.822Z,53.90
2022-08-09T21:20:31.020Z,54.00
2022-08-09T21:23:00.581Z,54.30
2022-08-09T21:25:55.815Z,54.50
2022-08-09T21:28:35.854Z,54.80
2022-08-09T21:31:17.580Z,55.00
2022-08-09T21:33:52.834Z,55.70
2022-08-09T21:36:23.076Z,55.50
2022-08-09T21:38:57.238Z,55.60
2022-08-09T21:41:59.820Z,55.80
2022-08-09T21:44:33.402Z,56.10
2022-08-09T21:47:05.296Z,56.30
2022-08-09T21:49:40.608Z,56.40
2022-08-09T21:52:15.044Z,56.60
2022-08-09T21:55:03.395Z,56.80
2022-08-09T21:57:39.120Z,57.10
2022-08-09T22:00:32.278Z,57.00
2022-08-09T22:03:05.559Z,57.30
2022-08-09T22:05:36.866Z,57.60
2022-08-09T22:08:13.235Z,57.80
2022-08-09T22:11:00.736Z,58.10
2022-08-09T22:13:35.759Z,58.20
2022-08-09T22:16:08.721Z,58.40
2022-08-09T22:18:52.813Z,58.70
2022-08-09T22:21:50.016Z,58.80
2022-08-09T22:24:21.144Z,59.00
2022-08-09T22:26:52.359Z,59.10
2022-08-09T22:29:28.924Z,59.40
2022-08-09T22:32:06.592Z,59.70
2022-08-09T22:35:02.385Z,59.90
2022-08-09T22:37:40.136Z,60.10
2022-08-09T22:40:10.552Z,60.10
2022-08-09T22:42:48.230Z,60.40
2022-08-09T22:48:13.940Z,61.00
2022-08-09T22:48:18.808Z,60.80
2022-08-09T22:50:52.950Z,60.90
2022-08-09T22:53:20.386Z,61.20
2022-08-09T22:56:30.063Z,61.50
2022-08-09T22:58:34.848Z,61.60
2022-08-09T23:01:04.139Z,61.80
2022-08-09T23:04:03.936Z,62.00
2022-08-09T23:06:35.073Z,62.30
2022-08-09T23:09:06.376Z,62.60
2022-08-09T23:11:33.944Z,62.90
2022-08-09T23:14:02.918Z,62.90
2022-08-09T23:16:30.425Z,63.10
2022-08-09T23:18:57.387Z,63.30
2022-08-09T23:21:29.948Z,63.50
2022-08-09T23:24:05.191Z,63.50
2022-08-09T23:26:35.836Z,63.80
2022-08-09T23:29:05.065Z,64.10
2022-08-09T23:31:32.418Z,64.10
2022-08-09T23:33:59.373Z,64.30
2022-08-09T23:36:27.017Z,64.60
2022-08-09T23:38:54.053Z,64.70
2022-08-09T23:41:27.675Z,64.80
2022-08-09T23:43:59.605Z,65.00
2022-08-09T23:46:29.066Z,65.10
2022-08-09T23:48:57.059Z,65.50
2022-08-09T23:51:24.461Z,65.70
2022-08-09T23:53:52.551Z,65.90
2022-08-09T23:56:53.582Z,66.50
2022-08-09T23:59:09.239Z,66.60
